sensor_id;sensor_type;location;lat;lon;timestamp;P1;durP1;ratioP1;P2;durP2;ratioP2
51612;SDS011;37694;51.748;14.326;2023-04-03T00:01:34;5.03;;;3.53;;
51612;SDS011;37694;51.748;14.326;2023-04-03T00:04:03;5.10;;;3.55;;
51612;SDS011;37694;51.748;14.326;2023-04-03T00:06:29;5.35;;;3.75;;
51612;SDS011;37694;51.748;14.326;2023-04-03T00:08:55;4.88;;;3.30;;
51612;SDS011;37694;51.748;14.326;2023-04-03T00:11:21;5.40;;;3.60;;
51612;SDS011;37694;51.748;14.326;2023-04-03T00:13:47;3.28;;;2.80;;
51612;SDS011;37694;51.748;14.326;2023-04-03T00:16:12;6.53;;;3.33;;
51612;SDS011;37694;51.748;14.326;2023-04-03T00:18:38;5.22;;;3.85;;
51612;SDS011;37694;51.748;14.326;2023-04-03T00:21:05;6.78;;;3.55;;
51612;SDS011;37694;51.748;14.326;2023-04-03T00:23:32;5.85;;;3.42;;
51612;SDS011;37694;51.748;14.326;2023-04-03T00:25:58;4.00;;;3.38;;
51612;SDS011;37694;51.748;14.326;2023-04-03T00:28:23;5.57;;;3.80;;
51612;SDS011;37694;51.748;14.326;2023-04-03T00:30:50;8.20;;;3.90;;
51612;SDS011;37694;51.748;14.326;2023-04-03T00:33:16;6.28;;;3.88;;
51612;SDS011;37694;51.748;14.326;2023-04-03T00:35:42;6.35;;;3.67;;
51612;SDS011;37694;51.748;14.326;2023-04-03T00:38:08;7.63;;;3.47;;
51612;SDS011;37694;51.748;14.326;2023-04-03T00:40:35;4.10;;;3.20;;
51612;SDS011;37694;51.748;14.326;2023-04-03T00:43:08;5.72;;;3.55;;
51612;SDS011;37694;51.748;14.326;2023-04-03T00:45:41;3.78;;;3.40;;
51612;SDS011;37694;51.748;14.326;2023-04-03T00:48:10;4.55;;;3.47;;
51612;SDS011;37694;51.748;14.326;2023-04-03T00:50:41;6.72;;;3.63;;
51612;SDS011;37694;51.748;14.326;2023-04-03T00:53:09;4.55;;;3.53;;
51612;SDS011;37694;51.748;14.326;2023-04-03T00:55:38;5.85;;;3.25;;
51612;SDS011;37694;51.748;14.326;2023-04-03T00:58:05;6.38;;;3.10;;
51612;SDS011;37694;51.748;14.326;2023-04-03T01:00:32;3.72;;;3.38;;
51612;SDS011;37694;51.748;14.326;2023-04-03T01:02:58;5.90;;;3.30;;
51612;SDS011;37694;51.748;14.326;2023-04-03T01:05:25;7.30;;;3.80;;
51612;SDS011;37694;51.748;14.326;2023-04-03T01:07:50;4.28;;;3.20;;
51612;SDS011;37694;51.748;14.326;2023-04-03T01:10:17;12.02;;;3.47;;
51612;SDS011;37694;51.748;14.326;2023-04-03T01:12:46;3.63;;;3.00;;
51612;SDS011;37694;51.748;14.326;2023-04-03T01:15:15;4.53;;;3.10;;
51612;SDS011;37694;51.748;14.326;2023-04-03T01:17:44;4.70;;;2.78;;
51612;SDS011;37694;51.748;14.326;2023-04-03T01:25:43;4.78;;;3.10;;
51612;SDS011;37694;51.748;14.326;2023-04-03T01:28:10;3.80;;;2.85;;
51612;SDS011;37694;51.748;14.326;2023-04-03T01:33:12;4.35;;;2.80;;
51612;SDS011;37694;51.748;14.326;2023-04-03T01:35:37;5.57;;;3.28;;
51612;SDS011;37694;51.748;14.326;2023-04-03T01:38:03;4.40;;;3.28;;
51612;SDS011;37694;51.748;14.326;2023-04-03T01:40:29;4.47;;;3.20;;
51612;SDS011;37694;51.748;14.326;2023-04-03T01:42:55;6.15;;;3.28;;
51612;SDS011;37694;51.748;14.326;2023-04-03T01:45:20;4.80;;;3.05;;
51612;SDS011;37694;51.748;14.326;2023-04-03T01:47:46;4.32;;;2.78;;
51612;SDS011;37694;51.748;14.326;2023-04-03T01:50:12;3.25;;;2.63;;
51612;SDS011;37694;51.748;14.326;2023-04-03T01:52:37;4.68;;;2.78;;
51612;SDS011;37694;51.748;14.326;2023-04-03T01:55:03;5.57;;;2.47;;
51612;SDS011;37694;51.748;14.326;2023-04-03T01:57:29;4.35;;;3.35;;
51612;SDS011;37694;51.748;14.326;2023-04-03T01:59:55;5.18;;;3.03;;
51612;SDS011;37694;51.748;14.326;2023-04-03T02:02:20;3.97;;;3.13;;
51612;SDS011;37694;51.748;14.326;2023-04-03T02:04:46;4.85;;;2.78;;
51612;SDS011;37694;51.748;14.326;2023-04-03T02:07:12;6.50;;;2.50;;
51612;SDS011;37694;51.748;14.326;2023-04-03T02:09:37;4.35;;;2.65;;
51612;SDS011;37694;51.748;14.326;2023-04-03T02:12:03;2.80;;;2.60;;
51612;SDS011;37694;51.748;14.326;2023-04-03T02:14:28;4.63;;;3.10;;
51612;SDS011;37694;51.748;14.326;2023-04-03T02:16:54;2.97;;;2.60;;
51612;SDS011;37694;51.748;14.326;2023-04-03T02:19:20;4.40;;;2.95;;
51612;SDS011;37694;51.748;14.326;2023-04-03T02:21:46;3.83;;;2.75;;
51612;SDS011;37694;51.748;14.326;2023-04-03T02:24:11;5.35;;;3.08;;
51612;SDS011;37694;51.748;14.326;2023-04-03T02:26:37;3.63;;;2.47;;
51612;SDS011;37694;51.748;14.326;2023-04-03T02:29:03;3.33;;;2.50;;
51612;SDS011;37694;51.748;14.326;2023-04-03T02:31:28;3.50;;;2.80;;
51612;SDS011;37694;51.748;14.326;2023-04-03T02:33:54;2.53;;;2.33;;
51612;SDS011;37694;51.748;14.326;2023-04-03T02:36:20;2.78;;;2.42;;
51612;SDS011;37694;51.748;14.326;2023-04-03T02:38:46;5.50;;;2.55;;
51612;SDS011;37694;51.748;14.326;2023-04-03T02:41:12;4.10;;;2.83;;
51612;SDS011;37694;51.748;14.326;2023-04-03T02:43:38;2.72;;;2.42;;
51612;SDS011;37694;51.748;14.326;2023-04-03T02:46:04;4.45;;;2.75;;
51612;SDS011;37694;51.748;14.326;2023-04-03T02:48:30;4.35;;;2.80;;
51612;SDS011;37694;51.748;14.326;2023-04-03T02:50:57;4.45;;;2.70;;
51612;SDS011;37694;51.748;14.326;2023-04-03T02:53:23;8.52;;;2.67;;
51612;SDS011;37694;51.748;14.326;2023-04-03T02:55:49;3.47;;;2.45;;
51612;SDS011;37694;51.748;14.326;2023-04-03T02:58:14;3.28;;;2.78;;
51612;SDS011;37694;51.748;14.326;2023-04-03T03:00:40;4.05;;;2.70;;
51612;SDS011;37694;51.748;14.326;2023-04-03T03:03:06;4.55;;;2.60;;
51612;SDS011;37694;51.748;14.326;2023-04-03T03:05:32;5.15;;;2.90;;
51612;SDS011;37694;51.748;14.326;2023-04-03T03:07:58;3.88;;;2.60;;
51612;SDS011;37694;51.748;14.326;2023-04-03T03:10:24;4.88;;;3.17;;
51612;SDS011;37694;51.748;14.326;2023-04-03T03:12:49;3.17;;;2.35;;
51612;SDS011;37694;51.748;14.326;2023-04-03T03:15:15;3.13;;;2.67;;
51612;SDS011;37694;51.748;14.326;2023-04-03T03:17:42;4.28;;;2.55;;
51612;SDS011;37694;51.748;14.326;2023-04-03T03:20:08;3.53;;;2.78;;
51612;SDS011;37694;51.748;14.326;2023-04-03T03:22:35;4.55;;;2.35;;
51612;SDS011;37694;51.748;14.326;2023-04-03T03:25:01;3.13;;;2.50;;
51612;SDS011;37694;51.748;14.326;2023-04-03T03:27:27;4.55;;;2.38;;
51612;SDS011;37694;51.748;14.326;2023-04-03T03:29:53;2.65;;;2.40;;
51612;SDS011;37694;51.748;14.326;2023-04-03T03:32:19;3.92;;;2.60;;
51612;SDS011;37694;51.748;14.326;2023-04-03T03:34:44;7.20;;;2.42;;
51612;SDS011;37694;51.748;14.326;2023-04-03T03:37:10;4.03;;;2.38;;
51612;SDS011;37694;51.748;14.326;2023-04-03T03:39:36;4.15;;;2.58;;
51612;SDS011;37694;51.748;14.326;2023-04-03T03:42:02;4.07;;;2.50;;
51612;SDS011;37694;51.748;14.326;2023-04-03T03:44:28;3.80;;;2.20;;
51612;SDS011;37694;51.748;14.326;2023-04-03T03:46:54;2.85;;;2.50;;
51612;SDS011;37694;51.748;14.326;2023-04-03T03:49:20;6.40;;;2.42;;
51612;SDS011;37694;51.748;14.326;2023-04-03T03:51:46;3.25;;;2.50;;
51612;SDS011;37694;51.748;14.326;2023-04-03T03:54:12;4.88;;;2.30;;
51612;SDS011;37694;51.748;14.326;2023-04-03T03:56:38;2.88;;;2.20;;
51612;SDS011;37694;51.748;14.326;2023-04-03T03:59:04;2.50;;;2.00;;
51612;SDS011;37694;51.748;14.326;2023-04-03T04:01:30;2.42;;;2.22;;
51612;SDS011;37694;51.748;14.326;2023-04-03T04:03:56;3.50;;;2.22;;
51612;SDS011;37694;51.748;14.326;2023-04-03T04:06:21;3.70;;;2.10;;
51612;SDS011;37694;51.748;14.326;2023-04-03T04:08:47;3.03;;;2.10;;
51612;SDS011;37694;51.748;14.326;2023-04-03T04:11:13;3.33;;;2.53;;
51612;SDS011;37694;51.748;14.326;2023-04-03T04:13:38;2.72;;;2.53;;
51612;SDS011;37694;51.748;14.326;2023-04-03T04:16:04;2.67;;;2.10;;
51612;SDS011;37694;51.748;14.326;2023-04-03T04:18:30;2.33;;;1.70;;
51612;SDS011;37694;51.748;14.326;2023-04-03T04:20:56;2.40;;;2.20;;
51612;SDS011;37694;51.748;14.326;2023-04-03T04:23:22;3.55;;;2.38;;
51612;SDS011;37694;51.748;14.326;2023-04-03T04:25:48;2.83;;;2.20;;
51612;SDS011;37694;51.748;14.326;2023-04-03T04:28:15;2.70;;;2.40;;
51612;SDS011;37694;51.748;14.326;2023-04-03T04:30:41;2.67;;;2.17;;
51612;SDS011;37694;51.748;14.326;2023-04-03T04:33:07;2.22;;;2.03;;
51612;SDS011;37694;51.748;14.326;2023-04-03T04:35:33;2.45;;;2.10;;
51612;SDS011;37694;51.748;14.326;2023-04-03T04:37:59;2.88;;;2.58;;
51612;SDS011;37694;51.748;14.326;2023-04-03T04:40:25;2.10;;;1.88;;
51612;SDS011;37694;51.748;14.326;2023-04-03T04:42:51;3.78;;;2.28;;
51612;SDS011;37694;51.748;14.326;2023-04-03T04:45:17;4.60;;;2.33;;
51612;SDS011;37694;51.748;14.326;2023-04-03T04:47:43;3.30;;;2.50;;
51612;SDS011;37694;51.748;14.326;2023-04-03T04:50:09;4.47;;;1.80;;
51612;SDS011;37694;51.748;14.326;2023-04-03T04:52:36;2.28;;;2.08;;
51612;SDS011;37694;51.748;14.326;2023-04-03T04:55:02;3.05;;;2.22;;
51612;SDS011;37694;51.748;14.326;2023-04-03T04:57:28;3.45;;;2.38;;
51612;SDS011;37694;51.748;14.326;2023-04-03T04:59:53;2.10;;;1.90;;
51612;SDS011;37694;51.748;14.326;2023-04-03T05:02:19;3.03;;;2.30;;
51612;SDS011;37694;51.748;14.326;2023-04-03T05:04:45;2.58;;;1.92;;
51612;SDS011;37694;51.748;14.326;2023-04-03T05:07:10;3.28;;;2.25;;
51612;SDS011;37694;51.748;14.326;2023-04-03T05:09:36;3.20;;;2.53;;
51612;SDS011;37694;51.748;14.326;2023-04-03T05:12:02;3.72;;;2.22;;
51612;SDS011;37694;51.748;14.326;2023-04-03T05:14:28;4.35;;;2.47;;
51612;SDS011;37694;51.748;14.326;2023-04-03T05:16:55;6.93;;;2.28;;
51612;SDS011;37694;51.748;14.326;2023-04-03T05:19:20;7.50;;;2.47;;
51612;SDS011;37694;51.748;14.326;2023-04-03T05:21:47;5.57;;;2.45;;
51612;SDS011;37694;51.748;14.326;2023-04-03T05:24:13;7.63;;;2.53;;
51612;SDS011;37694;51.748;14.326;2023-04-03T05:26:41;3.35;;;2.53;;
51612;SDS011;37694;51.748;14.326;2023-04-03T05:29:07;14.95;;;3.35;;
51612;SDS011;37694;51.748;14.326;2023-04-03T05:31:32;7.68;;;2.47;;
51612;SDS011;37694;51.748;14.326;2023-04-03T05:33:58;3.33;;;2.60;;
51612;SDS011;37694;51.748;14.326;2023-04-03T05:36:24;10.90;;;2.95;;
51612;SDS011;37694;51.748;14.326;2023-04-03T05:38:50;10.20;;;2.65;;
51612;SDS011;37694;51.748;14.326;2023-04-03T05:41:16;7.20;;;2.30;;
51612;SDS011;37694;51.748;14.326;2023-04-03T05:43:43;13.60;;;2.90;;
51612;SDS011;37694;51.748;14.326;2023-04-03T05:46:12;8.32;;;2.58;;
51612;SDS011;37694;51.748;14.326;2023-04-03T05:48:39;6.90;;;3.17;;
51612;SDS011;37694;51.748;14.326;2023-04-03T05:51:06;23.73;;;2.92;;
51612;SDS011;37694;51.748;14.326;2023-04-03T05:53:33;13.13;;;3.25;;
51612;SDS011;37694;51.748;14.326;2023-04-03T05:56:02;8.20;;;2.85;;
51612;SDS011;37694;51.748;14.326;2023-04-03T05:58:28;16.98;;;3.20;;
51612;SDS011;37694;51.748;14.326;2023-04-03T06:00:54;10.63;;;3.55;;
51612;SDS011;37694;51.748;14.326;2023-04-03T06:03:20;39.83;;;4.97;;
51612;SDS011;37694;51.748;14.326;2023-04-03T06:05:46;27.80;;;6.22;;
51612;SDS011;37694;51.748;14.326;2023-04-03T06:08:11;34.35;;;7.35;;
51612;SDS011;37694;51.748;14.326;2023-04-03T06:10:37;35.78;;;8.20;;
51612;SDS011;37694;51.748;14.326;2023-04-03T06:13:04;41.30;;;6.20;;
51612;SDS011;37694;51.748;14.326;2023-04-03T06:15:30;42.28;;;7.60;;
51612;SDS011;37694;51.748;14.326;2023-04-03T06:17:55;43.83;;;6.53;;
51612;SDS011;37694;51.748;14.326;2023-04-03T06:20:21;16.35;;;4.97;;
51612;SDS011;37694;51.748;14.326;2023-04-03T06:22:47;27.60;;;6.07;;
51612;SDS011;37694;51.748;14.326;2023-04-03T06:25:13;43.92;;;6.03;;
51612;SDS011;37694;51.748;14.326;2023-04-03T06:27:39;33.03;;;5.18;;
51612;SDS011;37694;51.748;14.326;2023-04-03T06:30:05;27.13;;;5.47;;
51612;SDS011;37694;51.748;14.326;2023-04-03T06:32:31;61.88;;;6.13;;
51612;SDS011;37694;51.748;14.326;2023-04-03T06:34:57;34.15;;;5.97;;
51612;SDS011;37694;51.748;14.326;2023-04-03T06:37:23;19.08;;;4.38;;
51612;SDS011;37694;51.748;14.326;2023-04-03T06:39:51;30.67;;;6.03;;
51612;SDS011;37694;51.748;14.326;2023-04-03T06:42:17;19.40;;;4.53;;
51612;SDS011;37694;51.748;14.326;2023-04-03T06:44:43;28.50;;;5.00;;
51612;SDS011;37694;51.748;14.326;2023-04-03T06:47:10;36.67;;;4.95;;
51612;SDS011;37694;51.748;14.326;2023-04-03T06:49:38;29.95;;;4.78;;
51612;SDS011;37694;51.748;14.326;2023-04-03T06:52:04;20.48;;;4.10;;
51612;SDS011;37694;51.748;14.326;2023-04-03T06:54:30;30.35;;;5.65;;
51612;SDS011;37694;51.748;14.326;2023-04-03T06:56:56;18.38;;;4.75;;
51612;SDS011;37694;51.748;14.326;2023-04-03T06:59:22;19.77;;;5.13;;
51612;SDS011;37694;51.748;14.326;2023-04-03T07:01:48;14.43;;;4.60;;
51612;SDS011;37694;51.748;14.326;2023-04-03T07:04:14;22.55;;;4.45;;
51612;SDS011;37694;51.748;14.326;2023-04-03T07:06:40;23.48;;;5.00;;
51612;SDS011;37694;51.748;14.326;2023-04-03T07:09:07;19.77;;;4.47;;
51612;SDS011;37694;51.748;14.326;2023-04-03T07:11:34;15.38;;;4.05;;
51612;SDS011;37694;51.748;14.326;2023-04-03T07:14:01;17.60;;;4.80;;
51612;SDS011;37694;51.748;14.326;2023-04-03T07:16:27;16.40;;;4.72;;
51612;SDS011;37694;51.748;14.326;2023-04-03T07:18:55;18.92;;;4.38;;
51612;SDS011;37694;51.748;14.326;2023-04-03T07:21:22;18.67;;;3.85;;
51612;SDS011;37694;51.748;14.326;2023-04-03T07:23:48;14.02;;;2.95;;
51612;SDS011;37694;51.748;14.326;2023-04-03T07:26:13;7.22;;;3.67;;
51612;SDS011;37694;51.748;14.326;2023-04-03T07:28:39;10.38;;;4.22;;
51612;SDS011;37694;51.748;14.326;2023-04-03T07:31:07;13.38;;;3.45;;
51612;SDS011;37694;51.748;14.326;2023-04-03T07:33:38;11.38;;;3.25;;
51612;SDS011;37694;51.748;14.326;2023-04-03T07:36:05;15.90;;;3.90;;
51612;SDS011;37694;51.748;14.326;2023-04-03T07:38:32;17.98;;;3.47;;
51612;SDS011;37694;51.748;14.326;2023-04-03T07:40:59;7.60;;;3.25;;
51612;SDS011;37694;51.748;14.326;2023-04-03T07:43:25;8.85;;;3.65;;
51612;SDS011;37694;51.748;14.326;2023-04-03T07:45:51;10.02;;;4.30;;
51612;SDS011;37694;51.748;14.326;2023-04-03T07:48:21;9.25;;;3.40;;
51612;SDS011;37694;51.748;14.326;2023-04-03T07:50:48;13.55;;;3.45;;
51612;SDS011;37694;51.748;14.326;2023-04-03T07:53:14;12.15;;;3.55;;
51612;SDS011;37694;51.748;14.326;2023-04-03T07:55:40;8.48;;;3.47;;
51612;SDS011;37694;51.748;14.326;2023-04-03T07:58:14;14.25;;;4.10;;
51612;SDS011;37694;51.748;14.326;2023-04-03T08:00:41;14.98;;;3.75;;
51612;SDS011;37694;51.748;14.326;2023-04-03T08:03:08;7.03;;;3.28;;
51612;SDS011;37694;51.748;14.326;2023-04-03T08:05:39;11.73;;;2.92;;
51612;SDS011;37694;51.748;14.326;2023-04-03T08:08:07;10.65;;;3.75;;
51612;SDS011;37694;51.748;14.326;2023-04-03T08:10:34;8.98;;;3.33;;
51612;SDS011;37694;51.748;14.326;2023-04-03T08:13:00;5.38;;;2.97;;
51612;SDS011;37694;51.748;14.326;2023-04-03T08:15:26;11.52;;;3.50;;
51612;SDS011;37694;51.748;14.326;2023-04-03T08:17:52;8.68;;;3.42;;
51612;SDS011;37694;51.748;14.326;2023-04-03T08:20:17;10.10;;;3.70;;
51612;SDS011;37694;51.748;14.326;2023-04-03T08:22:43;11.70;;;3.72;;
51612;SDS011;37694;51.748;14.326;2023-04-03T08:25:09;5.53;;;2.78;;
51612;SDS011;37694;51.748;14.326;2023-04-03T08:27:35;5.13;;;2.53;;
51612;SDS011;37694;51.748;14.326;2023-04-03T08:30:01;7.20;;;2.88;;
51612;SDS011;37694;51.748;14.326;2023-04-03T08:32:27;6.57;;;2.78;;
51612;SDS011;37694;51.748;14.326;2023-04-03T08:34:53;9.05;;;3.13;;
51612;SDS011;37694;51.748;14.326;2023-04-03T08:37:18;5.88;;;3.00;;
51612;SDS011;37694;51.748;14.326;2023-04-03T08:39:44;5.97;;;2.50;;
51612;SDS011;37694;51.748;14.326;2023-04-03T08:42:14;7.30;;;2.97;;
51612;SDS011;37694;51.748;14.326;2023-04-03T08:47:40;7.72;;;3.15;;
51612;SDS011;37694;51.748;14.326;2023-04-03T08:50:18;7.93;;;2.92;;
51612;SDS011;37694;51.748;14.326;2023-04-03T08:52:48;10.98;;;2.70;;
51612;SDS011;37694;51.748;14.326;2023-04-03T09:00:48;3.85;;;2.30;;
51612;SDS011;37694;51.748;14.326;2023-04-03T09:03:23;6.07;;;2.53;;
51612;SDS011;37694;51.748;14.326;2023-04-03T09:08:37;7.35;;;2.97;;
51612;SDS011;37694;51.748;14.326;2023-04-03T09:19:18;6.40;;;2.83;;
51612;SDS011;37694;51.748;14.326;2023-04-03T09:21:47;6.10;;;2.35;;
51612;SDS011;37694;51.748;14.326;2023-04-03T09:24:14;6.90;;;2.47;;
51612;SDS011;37694;51.748;14.326;2023-04-03T09:26:45;2.72;;;2.20;;
51612;SDS011;37694;51.748;14.326;2023-04-03T09:29:19;5.75;;;3.10;;
51612;SDS011;37694;51.748;14.326;2023-04-03T09:31:48;4.13;;;2.42;;
51612;SDS011;37694;51.748;14.326;2023-04-03T09:34:37;4.40;;;2.25;;
51612;SDS011;37694;51.748;14.326;2023-04-03T09:37:02;3.40;;;2.28;;
51612;SDS011;37694;51.748;14.326;2023-04-03T09:39:31;5.72;;;2.33;;
51612;SDS011;37694;51.748;14.326;2023-04-03T09:42:19;5.75;;;2.50;;
51612;SDS011;37694;51.748;14.326;2023-04-03T09:45:00;5.78;;;2.47;;
51612;SDS011;37694;51.748;14.326;2023-04-03T09:47:28;4.80;;;2.53;;
51612;SDS011;37694;51.748;14.326;2023-04-03T09:50:10;4.90;;;2.20;;
51612;SDS011;37694;51.748;14.326;2023-04-03T09:52:47;9.90;;;2.08;;
51612;SDS011;37694;51.748;14.326;2023-04-03T09:57:54;2.60;;;1.92;;
51612;SDS011;37694;51.748;14.326;2023-04-03T10:03:00;3.33;;;2.15;;
51612;SDS011;37694;51.748;14.326;2023-04-03T10:10:39;4.40;;;2.50;;
51612;SDS011;37694;51.748;14.326;2023-04-03T10:13:09;2.35;;;2.08;;
51612;SDS011;37694;51.748;14.326;2023-04-03T10:15:50;2.90;;;2.08;;
51612;SDS011;37694;51.748;14.326;2023-04-03T10:21:08;3.67;;;2.30;;
51612;SDS011;37694;51.748;14.326;2023-04-03T10:27:00;4.05;;;2.08;;
51612;SDS011;37694;51.748;14.326;2023-04-03T10:29:45;2.80;;;1.70;;
51612;SDS011;37694;51.748;14.326;2023-04-03T10:34:48;4.15;;;2.63;;
51612;SDS011;37694;51.748;14.326;2023-04-03T10:37:27;4.22;;;2.72;;
51612;SDS011;37694;51.748;14.326;2023-04-03T10:56:01;3.58;;;2.00;;
51612;SDS011;37694;51.748;14.326;2023-04-03T10:58:35;3.53;;;2.35;;
51612;SDS011;37694;51.748;14.326;2023-04-03T11:01:11;3.58;;;1.88;;
51612;SDS011;37694;51.748;14.326;2023-04-03T11:03:45;2.55;;;2.08;;
51612;SDS011;37694;51.748;14.326;2023-04-03T11:06:15;2.93;;;1.87;;
51612;SDS011;37694;51.748;14.326;2023-04-03T11:09:02;2.20;;;1.60;;
51612;SDS011;37694;51.748;14.326;2023-04-03T11:11:34;4.32;;;2.33;;
51612;SDS011;37694;51.748;14.326;2023-04-03T11:16:40;2.72;;;1.40;;
51612;SDS011;37694;51.748;14.326;2023-04-03T11:21:44;3.65;;;1.90;;
51612;SDS011;37694;51.748;14.326;2023-04-03T11:24:32;4.25;;;1.98;;
51612;SDS011;37694;51.748;14.326;2023-04-03T11:27:01;1.65;;;1.48;;
51612;SDS011;37694;51.748;14.326;2023-04-03T11:29:31;3.53;;;2.03;;
51612;SDS011;37694;51.748;14.326;2023-04-03T11:35:18;4.68;;;1.83;;
51612;SDS011;37694;51.748;14.326;2023-04-03T11:37:45;2.83;;;1.73;;
51612;SDS011;37694;51.748;14.326;2023-04-03T11:42:42;2.42;;;1.70;;
51612;SDS011;37694;51.748;14.326;2023-04-03T12:05:50;2.45;;;1.40;;
51612;SDS011;37694;51.748;14.326;2023-04-03T12:08:43;1.63;;;1.10;;
51612;SDS011;37694;51.748;14.326;2023-04-03T12:13:34;1.38;;;1.08;;
51612;SDS011;37694;51.748;14.326;2023-04-03T12:16:01;1.20;;;1.20;;
51612;SDS011;37694;51.748;14.326;2023-04-03T12:21:13;3.63;;;0.80;;
51612;SDS011;37694;51.748;14.326;2023-04-03T12:23:57;0.70;;;0.70;;
51612;SDS011;37694;51.748;14.326;2023-04-03T12:29:32;1.10;;;0.70;;
51612;SDS011;37694;51.748;14.326;2023-04-03T12:32:22;0.80;;;0.80;;
51612;SDS011;37694;51.748;14.326;2023-04-03T12:37:43;1.15;;;1.00;;
51612;SDS011;37694;51.748;14.326;2023-04-03T12:45:59;0.65;;;0.65;;
51612;SDS011;37694;51.748;14.326;2023-04-03T12:48:46;1.10;;;0.80;;
51612;SDS011;37694;51.748;14.326;2023-04-03T12:51:18;1.27;;;1.02;;
51612;SDS011;37694;51.748;14.326;2023-04-03T12:53:52;0.85;;;0.70;;
51612;SDS011;37694;51.748;14.326;2023-04-03T12:56:29;1.45;;;1.10;;
51612;SDS011;37694;51.748;14.326;2023-04-03T13:01:41;0.90;;;0.80;;
51612;SDS011;37694;51.748;14.326;2023-04-03T13:04:09;0.70;;;0.70;;
51612;SDS011;37694;51.748;14.326;2023-04-03T13:06:41;0.70;;;0.70;;
51612;SDS011;37694;51.748;14.326;2023-04-03T13:11:47;0.65;;;0.60;;
51612;SDS011;37694;51.748;14.326;2023-04-03T13:14:21;3.25;;;1.00;;
51612;SDS011;37694;51.748;14.326;2023-04-03T13:19:25;0.55;;;0.55;;
51612;SDS011;37694;51.748;14.326;2023-04-03T13:21:56;2.80;;;0.65;;
51612;SDS011;37694;51.748;14.326;2023-04-03T13:24:30;0.95;;;0.95;;
51612;SDS011;37694;51.748;14.326;2023-04-03T13:26:59;0.75;;;0.75;;
51612;SDS011;37694;51.748;14.326;2023-04-03T13:29:27;1.40;;;0.80;;
51612;SDS011;37694;51.748;14.326;2023-04-03T13:31:56;1.23;;;0.80;;
51612;SDS011;37694;51.748;14.326;2023-04-03T13:34:23;0.95;;;0.95;;
51612;SDS011;37694;51.748;14.326;2023-04-03T13:41:58;1.85;;;0.90;;
51612;SDS011;37694;51.748;14.326;2023-04-03T13:44:33;0.93;;;0.93;;
51612;SDS011;37694;51.748;14.326;2023-04-03T13:50:02;1.55;;;0.82;;
51612;SDS011;37694;51.748;14.326;2023-04-03T13:52:42;1.50;;;1.15;;
51612;SDS011;37694;51.748;14.326;2023-04-03T13:55:35;1.05;;;0.90;;
51612;SDS011;37694;51.748;14.326;2023-04-03T14:03:02;0.95;;;0.90;;
51612;SDS011;37694;51.748;14.326;2023-04-03T14:05:37;0.90;;;0.90;;
51612;SDS011;37694;51.748;14.326;2023-04-03T14:08:03;1.20;;;0.95;;
51612;SDS011;37694;51.748;14.326;2023-04-03T14:10:29;2.08;;;0.90;;
51612;SDS011;37694;51.748;14.326;2023-04-03T14:12:55;0.70;;;0.70;;
51612;SDS011;37694;51.748;14.326;2023-04-03T14:15:26;0.70;;;0.70;;
51612;SDS011;37694;51.748;14.326;2023-04-03T14:17:55;2.08;;;1.17;;
51612;SDS011;37694;51.748;14.326;2023-04-03T14:20:22;1.20;;;1.10;;
51612;SDS011;37694;51.748;14.326;2023-04-03T14:22:50;8.27;;;2.05;;
51612;SDS011;37694;51.748;14.326;2023-04-03T14:25:16;1.63;;;0.90;;
51612;SDS011;37694;51.748;14.326;2023-04-03T14:27:47;5.78;;;1.30;;
51612;SDS011;37694;51.748;14.326;2023-04-03T14:30:19;4.82;;;1.30;;
51612;SDS011;37694;51.748;14.326;2023-04-03T14:32:51;9.40;;;1.83;;
51612;SDS011;37694;51.748;14.326;2023-04-03T14:35:17;1.83;;;1.30;;
51612;SDS011;37694;51.748;14.326;2023-04-03T14:37:44;8.90;;;4.45;;
51612;SDS011;37694;51.748;14.326;2023-04-03T14:40:12;10.68;;;2.00;;
51612;SDS011;37694;51.748;14.326;2023-04-03T14:42:41;10.82;;;3.78;;
51612;SDS011;37694;51.748;14.326;2023-04-03T14:45:08;9.85;;;4.07;;
51612;SDS011;37694;51.748;14.326;2023-04-03T14:47:40;13.25;;;4.80;;
51612;SDS011;37694;51.748;14.326;2023-04-03T14:50:12;17.92;;;4.95;;
51612;SDS011;37694;51.748;14.326;2023-04-03T14:52:46;17.65;;;3.78;;
51612;SDS011;37694;51.748;14.326;2023-04-03T14:55:14;11.75;;;5.38;;
51612;SDS011;37694;51.748;14.326;2023-04-03T14:57:41;7.32;;;3.97;;
51612;SDS011;37694;51.748;14.326;2023-04-03T15:00:08;12.35;;;3.90;;
51612;SDS011;37694;51.748;14.326;2023-04-03T15:02:39;17.90;;;3.90;;
51612;SDS011;37694;51.748;14.326;2023-04-03T15:05:06;11.50;;;3.55;;
51612;SDS011;37694;51.748;14.326;2023-04-03T15:07:34;10.18;;;4.28;;
51612;SDS011;37694;51.748;14.326;2023-04-03T15:10:24;14.98;;;5.53;;
51612;SDS011;37694;51.748;14.326;2023-04-03T15:12:52;18.77;;;5.88;;
51612;SDS011;37694;51.748;14.326;2023-04-03T15:15:19;19.98;;;4.53;;
51612;SDS011;37694;51.748;14.326;2023-04-03T15:17:46;23.25;;;6.35;;
51612;SDS011;37694;51.748;14.326;2023-04-03T15:20:16;20.77;;;5.15;;
51612;SDS011;37694;51.748;14.326;2023-04-03T15:22:43;44.00;;;6.07;;
51612;SDS011;37694;51.748;14.326;2023-04-03T15:25:09;23.25;;;5.25;;
51612;SDS011;37694;51.748;14.326;2023-04-03T15:27:35;27.38;;;5.30;;
51612;SDS011;37694;51.748;14.326;2023-04-03T15:30:03;19.40;;;4.07;;
51612;SDS011;37694;51.748;14.326;2023-04-03T15:32:30;29.30;;;5.00;;
51612;SDS011;37694;51.748;14.326;2023-04-03T15:34:56;15.45;;;3.53;;
51612;SDS011;37694;51.748;14.326;2023-04-03T15:37:22;21.92;;;4.28;;
51612;SDS011;37694;51.748;14.326;2023-04-03T15:39:48;14.95;;;4.63;;
51612;SDS011;37694;51.748;14.326;2023-04-03T15:42:13;16.17;;;4.15;;
51612;SDS011;37694;51.748;14.326;2023-04-03T15:44:39;15.10;;;4.70;;
51612;SDS011;37694;51.748;14.326;2023-04-03T15:47:05;23.83;;;4.00;;
51612;SDS011;37694;51.748;14.326;2023-04-03T15:49:32;15.73;;;3.60;;
51612;SDS011;37694;51.748;14.326;2023-04-03T15:51:59;18.38;;;3.15;;
51612;SDS011;37694;51.748;14.326;2023-04-03T15:54:24;9.60;;;2.67;;
51612;SDS011;37694;51.748;14.326;2023-04-03T15:56:51;15.63;;;3.70;;
51612;SDS011;37694;51.748;14.326;2023-04-03T15:59:17;19.20;;;3.65;;
51612;SDS011;37694;51.748;14.326;2023-04-03T16:01:43;20.75;;;3.83;;
51612;SDS011;37694;51.748;14.326;2023-04-03T16:04:09;10.77;;;3.28;;
51612;SDS011;37694;51.748;14.326;2023-04-03T16:06:35;19.30;;;3.03;;
51612;SDS011;37694;51.748;14.326;2023-04-03T16:09:02;23.70;;;2.97;;
51612;SDS011;37694;51.748;14.326;2023-04-03T16:11:29;10.95;;;2.38;;
51612;SDS011;37694;51.748;14.326;2023-04-03T16:13:55;19.52;;;2.83;;
51612;SDS011;37694;51.748;14.326;2023-04-03T16:16:21;9.98;;;2.90;;
51612;SDS011;37694;51.748;14.326;2023-04-03T16:18:48;10.52;;;2.90;;
51612;SDS011;37694;51.748;14.326;2023-04-03T16:21:14;7.18;;;3.13;;
51612;SDS011;37694;51.748;14.326;2023-04-03T16:23:42;10.00;;;2.63;;
51612;SDS011;37694;51.748;14.326;2023-04-03T16:26:08;6.38;;;2.20;;
51612;SDS011;37694;51.748;14.326;2023-04-03T16:28:34;9.75;;;2.55;;
51612;SDS011;37694;51.748;14.326;2023-04-03T16:31:00;9.55;;;2.30;;
51612;SDS011;37694;51.748;14.326;2023-04-03T16:33:26;4.63;;;1.90;;
51612;SDS011;37694;51.748;14.326;2023-04-03T16:35:53;13.48;;;2.00;;
51612;SDS011;37694;51.748;14.326;2023-04-03T16:38:18;9.70;;;1.85;;
51612;SDS011;37694;51.748;14.326;2023-04-03T16:40:45;9.73;;;2.25;;
51612;SDS011;37694;51.748;14.326;2023-04-03T16:43:10;4.97;;;1.38;;
51612;SDS011;37694;51.748;14.326;2023-04-03T16:45:36;4.43;;;1.13;;
51612;SDS011;37694;51.748;14.326;2023-04-03T16:48:02;9.60;;;1.73;;